Clio, South Carolina
Current Conditions -  °F | °C
As of 4:35 AM on Friday 31 Oct 2014 (Local Time) from KBBP Reporting Station
Clear Clear  
Wind Chill: 46°   Ceiling: Unl
Heat Index: 46°   Visibility: 10mi
Dew Point: 45°   Wind: 3mph
Humidity: 93%   Direction: 20°NNE
Pressure: 29.93"   Gusts: NA
Location:  34.58°N, 79.55°W
Report Text: KBBP 310835Z AUTO 02003KT 10SM CLR 08/07 A2993 RMK AO2
Loading
Personal Weather Stations






























Interactive Weather Map
Tropical Storm Tracking
New forecast layout! Learn more

10-Day Weather Forecast

Advertisements
Track Severe Weather on mobile